Yokohama, Japan

8:46 PM JST on August 22, 2014 (GMT +0900)
Totsukaku-Kashiodai | Change Station
CLOSE
Current Station
Personal Weather Station
Location: 横浜市, 神奈川県
Elevation: 112 ft
Nearby Weather Stations

Elev 112 ft 35.42 °N, 139.56 °E | Updated 4 seconds ago

Partly Cloudy
Partly Cloudy
83.3 °F
Feels Like 90 °F
N
4.9
Wind Variable Wind from South
Gusts 7.4 mph

Today
High -- | Low -- °F
--% Chance of Precip.
Yesterday
High -- | Low -- °F
Precip. -- in
5:05 AM 6:22 PM
Waning Crescent, 9% visible
Pressure 29.83 in
Visibility 6.2 miles
Clouds Few 2000 ft
Heat Index 90 °F
Dew Point 74 °F
Humidity 73%
Rainfall 0.00 in
Snow Depth Not available.
UV 0 out of 12
Pollen Not available.
Air Quality Not available.
Flu Activity Not available.
METAR RJTT 221130Z 19015KT 9999 FEW020CB BKN/// 29/23 Q1010 NOSIG RMK 1CB020 A2982 LIGHTNING NW-N

More Conditions Fewer Conditions

Pressure 29.83 in
Visibility 6.2 miles
Clouds Few 2000 ft
Heat Index 90 °F
Dew Point 74 °F
Humidity 73%
Rainfall 0.00 in
Snow Depth Not available.
UV 0 out of 12
Pollen Not available.
Air Quality Not available.
Flu Activity Not available.
METAR RJTT 221130Z 19015KT 9999 FEW020CB BKN/// 29/23 Q1010 NOSIG RMK 1CB020 A2982 LIGHTNING NW-N

More Conditions Fewer Conditions

10-Day Weather Forecast

Almanac

Astronomy

Aug. 22, 2014 Rise Set
Actual Time 5:05 AM JST 6:22 PM JST
Civil Twilight 4:39 AM JST 6:49 PM JST
Nautical Twilight 4:07 AM JST 7:20 PM JST
Astronomical Twilight 3:34 AM JST 7:53 PM JST
Moon 1:58 AM JST 4:03 PM JST
Length of Visible Light 14h 10m
Length of Day
13h 16m
Tomorrow will be 2m 3s shorter.
Waning Crescent, 9% of the Moon is Illuminated
Today
Waning Crescent
Aug 25
New
Sep 2
First Quarter
Sep 8
Full
Sep 15
Last Quarter

Yesterday's Extremes

Country Highs Country Lows

Community

WunderPhotos

Upload Photos

1,746,151 photos uploaded!

WunderBlogs® & News

By Dr. Jeff Masters
Director of Meteorology, Weather Underground
By Kari Strenfel
Meteorologist, Weather Underground
By Christopher C. Burt
Weather Historian, Weather Underground
August 22, 2014
August 22, 2014
August 22, 2014

Nearby

Snow Depth

Not available.

Earthquake Activity

City Distance Mag. Time & Date
No recent earthquake activity has been reported nearby.
Minimum magnitude displayed is 2.5.

Coastal Water Temperatures

Place Temperature
No Stations Reporting

Nearby Weather Stations